createdAt,value
2018-10-03T00:00:18.722Z,1001.19
2018-10-03T00:01:28.862Z,1001.19
2018-10-03T00:02:38.926Z,1001.22
2018-10-03T00:03:49.008Z,1001.19
2018-10-03T00:04:59.090Z,1001.23
2018-10-03T00:06:09.184Z,1001.25
2018-10-03T00:07:19.098Z,1001.28
2018-10-03T00:08:28.920Z,1001.3
2018-10-03T00:09:38.988Z,1001.2
2018-10-03T00:10:48.788Z,1001.21
2018-10-03T00:11:58.616Z,1001.23
2018-10-03T00:13:08.902Z,1001.25
2018-10-03T00:14:18.722Z,1001.25
2018-10-03T00:15:28.790Z,1001.31
2018-10-03T00:16:38.604Z,1001.25
2018-10-03T00:17:48.417Z,1001.24
2018-10-03T00:18:58.497Z,1001.24
2018-10-03T00:20:08.563Z,1001.29
2018-10-03T00:21:18.714Z,1001.21
2018-10-03T00:22:28.812Z,1001.2
2018-10-03T00:23:38.895Z,1001.23
2018-10-03T00:24:48.769Z,1001.19
2018-10-03T00:25:58.858Z,1001.22
2018-10-03T00:27:09.439Z,1001.24
2018-10-03T00:28:19.519Z,1001.23
2018-10-03T00:29:29.402Z,1001.3
2018-10-03T00:30:39.282Z,1001.22
2018-10-03T00:31:49.372Z,1001.24
2018-10-03T00:32:59.466Z,1001.24
2018-10-03T00:34:09.033Z,1001.18
2018-10-03T00:35:19.116Z,1001.19
2018-10-03T00:36:29.201Z,1001.23
2018-10-03T00:37:39.267Z,1001.21
2018-10-03T00:38:49.345Z,1001.2
2018-10-03T00:39:59.643Z,1001.31
2018-10-03T00:41:09.712Z,1001.27
2018-10-03T00:42:19.795Z,1001.29
2018-10-03T00:43:29.630Z,1001.33
2018-10-03T00:44:39.688Z,1001.26
2018-10-03T00:45:49.513Z,1001.3
2018-10-03T00:46:59.579Z,1001.3
2018-10-03T00:48:09.699Z,1001.33
2018-10-03T00:49:19.525Z,1001.26
2018-10-03T00:50:29.357Z,1001.27
2018-10-03T00:51:39.460Z,1001.36
2018-10-03T00:52:49.543Z,1001.21
2018-10-03T00:53:59.685Z,1001.31
2018-10-03T00:55:09.774Z,1001.2
2018-10-03T00:56:19.318Z,1001.18
2018-10-03T00:57:29.440Z,1001.24
2018-10-03T00:58:39.279Z,1001.17
2018-10-03T00:59:49.372Z,1001.11
2018-10-03T01:00:59.191Z,1001.2
2018-10-03T01:02:08.747Z,1001.07
2018-10-03T01:03:18.824Z,1001.15
2018-10-03T01:04:28.647Z,1001.17
2018-10-03T01:05:38.275Z,1001.2
2018-10-03T01:06:48.362Z,1001.19
2018-10-03T01:07:58.446Z,1001.17
2018-10-03T01:09:11.599Z,1001.17
2018-10-03T01:10:21.683Z,1001.17
2018-10-03T01:11:31.768Z,1001.2
2018-10-03T01:12:41.843Z,1001.25
2018-10-03T01:13:51.936Z,1001.15
2018-10-03T01:15:01.630Z,1001.33
2018-10-03T01:16:11.444Z,1001.26
2018-10-03T01:17:21.298Z,1001.25
2018-10-03T01:18:31.359Z,1001.16
2018-10-03T01:19:41.456Z,1001.18
2018-10-03T01:20:51.545Z,1001.05
2018-10-03T01:22:01.357Z,1001.08
2018-10-03T01:23:11.334Z,1001.1
2018-10-03T01:24:21.413Z,1001.12
2018-10-03T01:25:31.212Z,1001.22
2018-10-03T01:26:40.753Z,1001.19
2018-10-03T01:27:50.565Z,1001.2
2018-10-03T01:29:00.415Z,1001.18
2018-10-03T01:30:10.485Z,1001.14
2018-10-03T01:31:20.537Z,1001.27
2018-10-03T01:32:30.343Z,1001.15
2018-10-03T01:33:40.425Z,1001.23
2018-10-03T01:34:50.522Z,1001.21
2018-10-03T01:36:01.893Z,1001.2
2018-10-03T01:37:11.706Z,1001.2
2018-10-03T01:38:21.837Z,1001.18
2018-10-03T01:39:32.522Z,1001.18
2018-10-03T01:40:42.604Z,1001.18
2018-10-03T01:41:52.218Z,1001.22
2018-10-03T01:43:02.295Z,1001.26
2018-10-03T01:44:12.385Z,1001.07
2018-10-03T01:45:22.463Z,1001.17
2018-10-03T01:46:32.070Z,1001.2
2018-10-03T01:47:42.235Z,1001.26
2018-10-03T01:48:51.783Z,1001.25
2018-10-03T01:50:01.865Z,1001.18
2018-10-03T01:51:11.406Z,1001.24
2018-10-03T01:52:21.218Z,1001.28
2018-10-03T01:53:31.325Z,1001.2
2018-10-03T01:54:41.139Z,1001.18
2018-10-03T01:55:51.242Z,1001.24
2018-10-03T01:57:01.309Z,1001.29
2018-10-03T01:58:11.387Z,1001.17
2018-10-03T01:59:21.459Z,1001.26
2018-10-03T02:00:31.635Z,1001.31
2018-10-03T02:01:41.551Z,1001.24
2018-10-03T02:02:51.668Z,1001.25
2018-10-03T02:04:01.563Z,1001.28
2018-10-03T02:05:11.673Z,1001.25
2018-10-03T02:06:21.738Z,1001.15
2018-10-03T02:07:31.291Z,1001.19
2018-10-03T02:08:41.363Z,1001.12
2018-10-03T02:09:51.428Z,1001.16
2018-10-03T02:11:02.079Z,1001.22
2018-10-03T02:12:11.883Z,1001.17
2018-10-03T02:13:21.702Z,1001.14
2018-10-03T02:14:31.783Z,1001.17
2018-10-03T02:15:41.913Z,1001.1
2018-10-03T02:16:51.999Z,1001.18
2018-10-03T02:18:04.273Z,1001.25
2018-10-03T02:19:14.381Z,1001.19
2018-10-03T02:20:24.219Z,1001.17
2018-10-03T02:21:34.373Z,1001.19
2018-10-03T02:22:44.433Z,1001.19
2018-10-03T02:23:54.498Z,1001.17
2018-10-03T02:25:04.580Z,1001.21
2018-10-03T02:26:14.668Z,1001.23
2018-10-03T02:27:24.731Z,1001.16
2018-10-03T02:28:34.539Z,1001.25
2018-10-03T02:29:44.635Z,1001.2
2018-10-03T02:30:54.811Z,1001.18
2018-10-03T02:32:04.926Z,1001.26
2018-10-03T02:33:15.001Z,1001.22
2018-10-03T02:34:25.141Z,1001.21
2018-10-03T02:35:35.228Z,1001.16
2018-10-03T02:36:45.043Z,1001.23
2018-10-03T02:37:55.146Z,1001.19
2018-10-03T02:39:05.335Z,1001.27
2018-10-03T02:40:15.488Z,1001.24
2018-10-03T02:41:25.579Z,1001.23
2018-10-03T02:42:35.400Z,1001.28
2018-10-03T02:43:45.497Z,1001.2
2018-10-03T02:44:55.598Z,1001.22
2018-10-03T02:46:06.751Z,1001.29
2018-10-03T02:47:16.573Z,1001.29
2018-10-03T02:48:26.694Z,1001.27
2018-10-03T02:49:36.781Z,1001.34
2018-10-03T02:50:46.919Z,1001.29
2018-10-03T02:51:57.061Z,1001.42
2018-10-03T02:53:07.171Z,1001.38
2018-10-03T02:54:17.264Z,1001.34
2018-10-03T02:55:27.072Z,1001.3
2018-10-03T02:56:37.157Z,1001.4
2018-10-03T02:57:47.071Z,1001.42
2018-10-03T02:58:56.895Z,1001.45
2018-10-03T03:00:06.981Z,1001.35
2018-10-03T03:01:17.060Z,1001.43
2018-10-03T03:02:27.191Z,1001.33
2018-10-03T03:34:35.842Z,1001.84
2018-10-03T03:35:45.904Z,1001.83
2018-10-03T03:36:55.997Z,1001.87
2018-10-03T03:38:06.097Z,1001.87
2018-10-03T03:39:16.170Z,1001.88
2018-10-03T03:40:26.298Z,1001.87
2018-10-03T03:41:36.401Z,1001.92
2018-10-03T03:42:46.483Z,1001.9
2018-10-03T03:43:56.356Z,1001.9
2018-10-03T03:45:06.177Z,1001.87
2018-10-03T03:46:16.160Z,1001.94
2018-10-03T03:47:26.250Z,1001.9
2018-10-03T03:48:36.347Z,1001.88
2018-10-03T03:49:46.445Z,1001.9
2018-10-03T03:50:56.550Z,1001.9
2018-10-03T03:52:07.680Z,1001.87
2018-10-03T03:53:17.776Z,1001.87
2018-10-03T03:54:27.864Z,1001.83
2018-10-03T03:55:37.941Z,1001.82
2018-10-03T03:56:48.036Z,1001.82
2018-10-03T03:57:58.183Z,1001.85
2018-10-03T03:59:08.006Z,1001.84
2018-10-03T04:00:18.111Z,1001.84
2018-10-03T04:01:28.199Z,1001.87
2018-10-03T04:02:38.280Z,1001.91
2018-10-03T04:03:48.362Z,1001.93
2018-10-03T04:04:58.448Z,1001.92
2018-10-03T04:06:08.553Z,1001.92
2018-10-03T04:07:18.655Z,1001.94
2018-10-03T04:08:28.492Z,1001.92
2018-10-03T04:09:38.676Z,1001.94
2018-10-03T04:10:48.747Z,1001.87
2018-10-03T04:11:58.568Z,1001.88
2018-10-03T04:13:08.391Z,1001.82
2018-10-03T04:14:18.471Z,1001.83
2018-10-03T04:15:28.590Z,1001.78
2018-10-03T04:16:38.718Z,1001.78
2018-10-03T04:17:48.792Z,1001.82
2018-10-03T04:18:58.365Z,1001.83
2018-10-03T04:20:10.861Z,1001.78
2018-10-03T04:21:20.994Z,1001.8
2018-10-03T04:22:31.086Z,1001.77
2018-10-03T04:23:41.167Z,1001.74
2018-10-03T04:24:51.259Z,1001.77
2018-10-03T04:26:01.241Z,1001.8
2018-10-03T04:27:11.373Z,1001.74
2018-10-03T04:28:21.458Z,1001.76
2018-10-03T04:29:31.623Z,1001.81
2018-10-03T04:30:41.692Z,1001.82
2018-10-03T04:31:51.521Z,1001.8
2018-10-03T04:33:02.882Z,1001.81
2018-10-03T04:34:12.964Z,1001.76
2018-10-03T04:35:23.084Z,1001.77
2018-10-03T04:36:33.322Z,1001.78
2018-10-03T04:37:43.403Z,1001.77
2018-10-03T04:38:53.535Z,1001.73
2018-10-03T04:40:03.640Z,1001.74
2018-10-03T04:41:13.178Z,1001.65
2018-10-03T04:42:23.043Z,1001.68
2018-10-03T04:43:32.953Z,1001.62
2018-10-03T04:44:42.786Z,1001.55
2018-10-03T04:45:52.879Z,1001.51
2018-10-03T04:47:02.987Z,1001.44
2018-10-03T04:48:12.807Z,1001.41
2018-10-03T04:49:22.614Z,1001.47
2018-10-03T04:50:32.460Z,1001.49
2018-10-03T04:51:42.547Z,1001.47
2018-10-03T04:52:52.635Z,1001.51
2018-10-03T04:54:02.767Z,1001.48
2018-10-03T04:55:12.851Z,1001.42
2018-10-03T04:56:22.784Z,1001.35
2018-10-03T04:57:32.864Z,1001.38
2018-10-03T04:58:42.952Z,1001.37
2018-10-03T04:59:52.834Z,1001.39
2018-10-03T05:01:03.436Z,1001.41
2018-10-03T05:02:13.309Z,1001.38
2018-10-03T05:03:22.868Z,1001.43
2018-10-03T05:04:32.953Z,1001.45
2018-10-03T05:05:43.039Z,1001.48
2018-10-03T05:06:53.137Z,1001.59
2018-10-03T05:08:06.556Z,1001.43
2018-10-03T05:09:16.635Z,1001.47
2018-10-03T05:10:26.737Z,1001.49
2018-10-03T05:11:36.823Z,1001.52
2018-10-03T05:12:46.916Z,1001.55
2018-10-03T05:13:57.000Z,1001.53
2018-10-03T05:15:07.127Z,1001.5
2018-10-03T05:16:17.201Z,1001.52
2018-10-03T05:17:27.020Z,1001.5
2018-10-03T05:18:37.106Z,1001.44
2018-10-03T05:19:46.981Z,1001.42
2018-10-03T05:20:57.070Z,1001.37
2018-10-03T05:22:06.631Z,1001.36
2018-10-03T05:23:16.769Z,1001.31
2018-10-03T05:24:26.858Z,1001.29
2018-10-03T05:25:36.985Z,1001.24
2018-10-03T05:26:47.069Z,1001.32
2018-10-03T05:27:56.987Z,1001.37
2018-10-03T05:29:08.665Z,1001.44
2018-10-03T05:30:18.792Z,1001.49
2018-10-03T05:31:28.662Z,1001.5
2018-10-03T05:32:38.488Z,1001.49
2018-10-03T05:33:48.615Z,1001.48
2018-10-03T05:34:58.445Z,1001.45
2018-10-03T05:36:08.534Z,1001.45
2018-10-03T05:37:18.679Z,1001.42
2018-10-03T05:38:28.780Z,1001.54
2018-10-03T05:39:38.982Z,1001.52
2018-10-03T05:40:49.624Z,1001.49
2018-10-03T05:41:59.435Z,1001.54
2018-10-03T05:43:10.524Z,1001.55
2018-10-03T05:44:20.354Z,1001.64
2018-10-03T05:45:30.199Z,1001.63
2018-10-03T05:46:40.289Z,1001.62
2018-10-03T05:47:50.427Z,1001.59
2018-10-03T05:49:01.317Z,1001.62
2018-10-03T05:50:11.407Z,1001.63
2018-10-03T05:51:21.252Z,1001.66
2018-10-03T05:52:31.077Z,1001.62
2018-10-03T05:53:40.904Z,1001.54
2018-10-03T05:54:51.098Z,1001.62
2018-10-03T05:56:01.277Z,1001.63
2018-10-03T05:57:11.361Z,1001.63
2018-10-03T05:58:21.434Z,1001.63
2018-10-03T05:59:31.531Z,1001.67
2018-10-03T06:00:41.602Z,1001.71
2018-10-03T06:01:51.790Z,1001.72
2018-10-03T06:03:01.678Z,1001.74
2018-10-03T06:04:11.776Z,1001.66
2018-10-03T06:05:21.583Z,1001.75
2018-10-03T06:06:31.726Z,1001.73
2018-10-03T06:07:41.814Z,1001.79
2018-10-03T06:08:51.893Z,1001.76
2018-10-03T06:10:03.376Z,1001.95
2018-10-03T06:11:13.199Z,1001.83
2018-10-03T06:12:23.361Z,1001.82
2018-10-03T06:13:33.462Z,1001.87
2018-10-03T06:14:43.287Z,1001.9
2018-10-03T06:15:52.855Z,1001.76
2018-10-03T06:17:02.671Z,1001.9
2018-10-03T06:18:12.815Z,1001.81
2018-10-03T06:19:22.918Z,1001.82
2018-10-03T06:20:32.224Z,1001.86
2018-10-03T06:21:42.050Z,1001.87
2018-10-03T06:22:51.901Z,1001.93
2018-10-03T06:24:01.457Z,1001.98
2018-10-03T06:25:11.279Z,1001.97
2018-10-03T06:26:20.847Z,1002.04
2018-10-03T06:27:30.955Z,1001.96
2018-10-03T06:28:41.177Z,1001.95
2018-10-03T06:29:50.727Z,1001.94
2018-10-03T06:31:00.373Z,1002.1
2018-10-03T06:32:10.469Z,1002.1
2018-10-03T06:33:20.402Z,1002.1
2018-10-03T06:34:30.320Z,1002.11
2018-10-03T06:35:40.154Z,1002.11
2018-10-03T06:36:50.077Z,1002.12
2018-10-03T06:38:02.731Z,1002.12
2018-10-03T06:39:12.882Z,1002.07
2018-10-03T06:40:23.373Z,1002.09
2018-10-03T06:41:33.995Z,1002.09
2018-10-03T06:42:44.127Z,1002.13
2018-10-03T06:43:53.955Z,1002.11
2018-10-03T06:45:04.087Z,1002.14
2018-10-03T06:46:13.898Z,1002.14
2018-10-03T06:47:23.988Z,1002.14
2018-10-03T06:48:33.820Z,1002.12
2018-10-03T06:49:43.721Z,1002.1
2018-10-03T06:50:53.878Z,1002.12
2018-10-03T06:52:03.964Z,1002.07
2018-10-03T06:53:14.063Z,1002.06
2018-10-03T06:54:24.151Z,1002.07
2018-10-03T06:55:34.252Z,1002.14
2018-10-03T06:56:44.391Z,1002.11
2018-10-03T06:57:54.616Z,1002.09
2018-10-03T06:59:04.695Z,1002.11
2018-10-03T07:00:14.793Z,1002.1
2018-10-03T07:01:24.869Z,1002.12
2018-10-03T07:02:35.080Z,1002.11
2018-10-03T07:03:45.167Z,1002.04
2018-10-03T07:04:54.983Z,1002.05
2018-10-03T07:06:04.812Z,1002.09
2018-10-03T07:07:14.899Z,1001.99
2018-10-03T07:08:25.042Z,1002.01
2018-10-03T07:09:35.135Z,1002.02
2018-10-03T07:10:45.018Z,1002.01
2018-10-03T07:11:55.097Z,1002.09
2018-10-03T07:13:05.240Z,1002.11
2018-10-03T07:14:15.751Z,1002.12
2018-10-03T07:15:25.679Z,1002.14
2018-10-03T07:16:35.761Z,1002.09
2018-10-03T07:17:45.852Z,1002.14
2018-10-03T07:18:55.700Z,1002.19
2018-10-03T07:20:06.535Z,1002.18
2018-10-03T07:21:17.106Z,1002.18
2018-10-03T07:22:27.196Z,1002.17
2018-10-03T07:23:37.291Z,1002.12
2018-10-03T07:24:47.389Z,1002.12
2018-10-03T07:25:57.561Z,1002.05
2018-10-03T07:27:08.014Z,1002.03
2018-10-03T07:28:18.207Z,1002.01
2018-10-03T07:29:28.029Z,1001.99
2018-10-03T07:30:38.117Z,1002.06
2018-10-03T07:31:48.261Z,1002.01
2018-10-03T07:32:58.363Z,1002.03
2018-10-03T07:34:08.188Z,1002.05
2018-10-03T07:35:17.747Z,1002.09
2018-10-03T07:36:27.573Z,1002.1
2018-10-03T07:37:37.721Z,1002.11
2018-10-03T07:38:47.852Z,1002.12
2018-10-03T07:39:57.683Z,1002.16
2018-10-03T07:41:08.886Z,1002.08
2018-10-03T07:42:18.972Z,1002.13
2018-10-03T07:43:29.055Z,1002.22
2018-10-03T07:44:39.149Z,1002.15
2018-10-03T07:45:49.239Z,1002.25
2018-10-03T07:46:59.335Z,1002.24
2018-10-03T07:48:11.001Z,1002.41
2018-10-03T07:49:20.504Z,1002.23
2018-10-03T07:50:30.634Z,1002.28
2018-10-03T07:51:40.751Z,1002.34
2018-10-03T07:52:50.869Z,1002.27
2018-10-03T07:54:02.847Z,1002.3
2018-10-03T07:55:12.998Z,1002.12
2018-10-03T07:56:23.004Z,1002.21
2018-10-03T07:57:32.665Z,1002.14
2018-10-03T07:58:42.754Z,1002.08
2018-10-03T07:59:52.914Z,1002.02
2018-10-03T08:01:03.002Z,1002.17
2018-10-03T08:02:13.125Z,1002.31
2018-10-03T08:03:23.197Z,1002.21
2018-10-03T08:04:33.021Z,1002.2
2018-10-03T08:05:43.101Z,1002.16
2018-10-03T08:06:53.215Z,1002.19
2018-10-03T08:08:03.272Z,1002.16
2018-10-03T08:09:13.372Z,1002.15
2018-10-03T08:10:23.236Z,1002.19
2018-10-03T08:11:33.425Z,1002.13
2018-10-03T08:12:43.532Z,1002.06
2018-10-03T08:13:53.686Z,1002.13
2018-10-03T08:15:03.874Z,1002.16
2018-10-03T08:16:13.778Z,1002.13
2018-10-03T08:17:23.890Z,1002.17
2018-10-03T08:18:34.045Z,1002.13
2018-10-03T08:19:43.888Z,1002.08
2018-10-03T08:20:54.032Z,1002.1
2018-10-03T08:22:04.112Z,1002.05
2018-10-03T08:23:14.261Z,1002.08
2018-10-03T08:24:24.366Z,1002.13
2018-10-03T08:25:34.849Z,1002.18
2018-10-03T08:26:44.671Z,1002.18
2018-10-03T08:27:54.480Z,1002.23
2018-10-03T08:29:04.806Z,1002.16
2018-10-03T08:30:14.898Z,1002.2
2018-10-03T08:31:25.022Z,1002.14
2018-10-03T08:32:35.235Z,1002.17
2018-10-03T08:33:46.406Z,1002.12
2018-10-03T08:34:56.563Z,1002.17
2018-10-03T08:36:06.647Z,1002.17
2018-10-03T08:37:16.724Z,1002.23
2018-10-03T08:38:26.546Z,1002.19
2018-10-03T08:39:36.550Z,1002.2
2018-10-03T08:40:46.374Z,1002.16
2018-10-03T08:41:56.192Z,1002.19
2018-10-03T08:43:06.336Z,1002.12
2018-10-03T08:44:16.502Z,1002.12
2018-10-03T08:45:26.417Z,1002.16
2018-10-03T08:46:36.856Z,1002.14
2018-10-03T08:47:46.667Z,1002.15
2018-10-03T08:48:56.766Z,1002.11
2018-10-03T08:50:08.623Z,1002.18
2018-10-03T08:51:18.694Z,1002.16
2018-10-03T08:52:28.509Z,1002.29
2018-10-03T08:53:38.617Z,1002.22
2018-10-03T08:54:48.815Z,1002.2
2018-10-03T08:55:58.618Z,1002.23
2018-10-03T08:57:09.170Z,1002.26
2018-10-03T08:58:19.079Z,1002.23
2018-10-03T08:59:29.871Z,1002.26
2018-10-03T09:00:40.151Z,1002.24
2018-10-03T09:01:50.359Z,1002.26
2018-10-03T09:03:00.442Z,1002.28
2018-10-03T09:04:10.582Z,1002.27
2018-10-03T09:05:20.680Z,1002.32
2018-10-03T09:06:30.524Z,1002.34
2018-10-03T09:07:40.648Z,1002.27
2018-10-03T09:08:50.741Z,1002.33
2018-10-03T09:10:00.808Z,1002.4
2018-10-03T09:11:10.890Z,1002.34
2018-10-03T09:12:21.121Z,1002.36
2018-10-03T09:13:31.315Z,1002.41
2018-10-03T09:14:41.724Z,1002.34
2018-10-03T09:15:52.756Z,1002.43
2018-10-03T09:17:02.855Z,1002.34
2018-10-03T09:18:12.984Z,1002.43
2018-10-03T09:19:23.054Z,1002.41
2018-10-03T09:20:32.865Z,1002.45
2018-10-03T09:21:42.989Z,1002.45
2018-10-03T09:22:53.502Z,1002.46
2018-10-03T09:24:03.592Z,1002.39
2018-10-03T09:25:13.676Z,1002.4
2018-10-03T09:26:23.766Z,1002.39
2018-10-03T09:27:33.578Z,1002.39
2018-10-03T09:28:43.739Z,1002.46
2018-10-03T09:29:54.042Z,1002.41
2018-10-03T09:31:04.634Z,1002.36
2018-10-03T09:32:14.707Z,1002.38
2018-10-03T09:33:24.789Z,1002.34
2018-10-03T09:34:34.606Z,1002.41
2018-10-03T09:35:44.692Z,1002.34
2018-10-03T09:36:54.512Z,1002.41
2018-10-03T09:38:04.608Z,1002.42
2018-10-03T09:39:14.755Z,1002.38
2018-10-03T09:40:24.980Z,1002.38
2018-10-03T09:41:35.067Z,1002.38
2018-10-03T09:42:45.159Z,1002.4
2018-10-03T09:43:55.195Z,1002.38
2018-10-03T09:45:06.389Z,1002.34
2018-10-03T09:46:16.460Z,1002.33
2018-10-03T09:47:26.716Z,1002.37
2018-10-03T09:48:36.800Z,1002.41
2018-10-03T09:49:46.866Z,1002.39
2018-10-03T09:50:56.951Z,1002.46
2018-10-03T09:52:07.033Z,1002.46
2018-10-03T09:53:17.136Z,1002.38
2018-10-03T09:54:27.220Z,1002.44
2018-10-03T09:55:37.315Z,1002.42
2018-10-03T09:56:47.131Z,1002.38
2018-10-03T09:57:57.213Z,1002.45
2018-10-03T09:59:07.984Z,1002.39
2018-10-03T10:00:17.622Z,1002.41
2018-10-03T10:01:28.130Z,1002.46
2018-10-03T10:02:37.970Z,1002.44
2018-10-03T10:03:48.052Z,1002.39
2018-10-03T10:04:58.199Z,1002.45
2018-10-03T10:06:08.322Z,1002.43
2018-10-03T10:07:18.413Z,1002.4
2018-10-03T10:08:28.503Z,1002.44
2018-10-03T10:09:38.315Z,1002.55
2018-10-03T10:10:48.598Z,1002.49
2018-10-03T10:11:58.440Z,1002.41
2018-10-03T10:13:08.508Z,1002.4
2018-10-03T10:14:18.343Z,1002.37
2018-10-03T10:15:28.415Z,1002.44
2018-10-03T10:16:38.514Z,1002.4
2018-10-03T10:17:48.592Z,1002.29
2018-10-03T10:18:58.702Z,1002.44
2018-10-03T10:20:10.098Z,1002.45
2018-10-03T10:21:19.913Z,1002.4
2018-10-03T10:22:29.725Z,1002.38
2018-10-03T10:23:39.809Z,1002.37
2018-10-03T10:24:49.632Z,1002.47
2018-10-03T10:25:59.713Z,1002.51
2018-10-03T10:27:09.272Z,1002.37
2018-10-03T10:28:19.396Z,1002.41
2018-10-03T10:29:29.462Z,1002.33
2018-10-03T10:30:39.290Z,1002.22
2018-10-03T10:31:49.167Z,1002.45
2018-10-03T10:33:00.179Z,1002.4
2018-10-03T10:34:10.784Z,1002.33
2018-10-03T10:35:20.612Z,1002.34
2018-10-03T10:36:30.719Z,1002.37
2018-10-03T10:37:40.016Z,1002.22
2018-10-03T10:38:50.431Z,1002.24
2018-10-03T10:40:00.602Z,1002.31
2018-10-03T10:41:10.738Z,1002.25
2018-10-03T10:42:21.628Z,1002.34
2018-10-03T10:43:31.780Z,1002.37
2018-10-03T10:44:42.096Z,1002.27
2018-10-03T10:45:52.248Z,1002.16
2018-10-03T10:47:02.277Z,1002.14
2018-10-03T10:48:12.405Z,1002.19
2018-10-03T10:49:22.490Z,1002.24
2018-10-03T10:50:32.585Z,1002.22
2018-10-03T10:51:42.545Z,1002.18
2018-10-03T10:52:53.140Z,1002.14
2018-10-03T10:54:03.212Z,1002.21
2018-10-03T10:55:13.308Z,1002.2
2018-10-03T10:56:23.392Z,1002.19
2018-10-03T10:57:33.528Z,1002.22
2018-10-03T10:58:43.621Z,1002.33
2018-10-03T10:59:53.797Z,1002.3
2018-10-03T11:01:06.398Z,1002.28
2018-10-03T11:02:16.479Z,1002.22
2018-10-03T11:03:26.605Z,1002.31
2018-10-03T11:04:36.693Z,1002.34
2018-10-03T11:05:46.511Z,1002.46
2018-10-03T11:06:56.579Z,1002.36
2018-10-03T11:08:06.501Z,1002.48
2018-10-03T11:09:16.306Z,1002.41
2018-10-03T11:10:26.128Z,1002.47
2018-10-03T11:11:36.231Z,1002.41
2018-10-03T11:12:46.422Z,1002.35
2018-10-03T11:13:56.516Z,1002.44
2018-10-03T11:15:06.616Z,1002.49
2018-10-03T11:16:16.481Z,1002.46
2018-10-03T11:17:26.561Z,1002.47
2018-10-03T11:18:36.703Z,1002.45
2018-10-03T11:19:46.632Z,1002.42
2018-10-03T11:20:56.753Z,1002.42
2018-10-03T11:22:06.826Z,1002.42
2018-10-03T11:23:16.920Z,1002.51
2018-10-03T11:24:27.502Z,1002.44
2018-10-03T11:25:39.152Z,1002.46
2018-10-03T11:26:49.319Z,1002.51
2018-10-03T11:27:59.393Z,1002.38
2018-10-03T11:29:11.298Z,1002.44
2018-10-03T11:30:21.379Z,1002.39
2018-10-03T11:31:30.929Z,1002.38
2018-10-03T11:32:41.016Z,1002.43
2018-10-03T11:33:50.569Z,1002.37
2018-10-03T11:35:01.369Z,1002.37
2018-10-03T11:36:11.189Z,1002.33
2018-10-03T11:37:21.270Z,1002.24
2018-10-03T11:38:31.375Z,1002.16
2018-10-03T11:39:41.480Z,1002.2
2018-10-03T11:40:51.554Z,1002.23
2018-10-03T11:42:02.181Z,1002.19
2018-10-03T11:43:12.275Z,1002.18
2018-10-03T11:44:22.170Z,1002.2
2018-10-03T11:45:31.713Z,1002.31
2018-10-03T11:46:41.784Z,1002.17
2018-10-03T11:47:51.879Z,1002.23
2018-10-03T11:49:02.826Z,1002.12
2018-10-03T11:50:12.945Z,1002.13
2018-10-03T11:51:22.770Z,1002.22
2018-10-03T11:52:32.323Z,1002.2
2018-10-03T11:53:42.384Z,1002.22
2018-10-03T11:54:52.225Z,1002.28
2018-10-03T11:56:02.295Z,1002.23
2018-10-03T11:57:12.489Z,1002.24
2018-10-03T11:58:22.626Z,1002.2
2018-10-03T11:59:32.483Z,1002.13
2018-10-03T12:00:43.071Z,1002.38
2018-10-03T12:01:53.218Z,1002.09
2018-10-03T12:03:03.471Z,1002.11
2018-10-03T12:04:14.104Z,1002.07
2018-10-03T12:05:24.173Z,1002.01
2018-10-03T12:06:34.284Z,1002.14
2018-10-03T12:07:44.616Z,1002.01
2018-10-03T12:08:54.733Z,1002.02
2018-10-03T12:10:06.321Z,1001.96
2018-10-03T12:11:16.395Z,1001.96
2018-10-03T12:12:26.479Z,1001.87
2018-10-03T12:13:36.618Z,1001.86
2018-10-03T12:14:47.178Z,1002.22
2018-10-03T12:15:57.275Z,1001.95
2018-10-03T12:17:07.363Z,1001.99
2018-10-03T12:18:17.450Z,1001.79
2018-10-03T12:19:27.648Z,1001.87
2018-10-03T12:20:37.214Z,1002.12
2018-10-03T12:21:47.325Z,1001.98
2018-10-03T12:22:57.407Z,1001.97
2018-10-03T12:24:07.509Z,1001.96
2018-10-03T12:25:17.656Z,1001.94
2018-10-03T12:26:27.708Z,1001.94
2018-10-03T12:27:37.793Z,1001.85
2018-10-03T12:28:47.872Z,1001.86
2018-10-03T12:29:57.693Z,1001.85
2018-10-03T12:31:08.508Z,1001.8
2018-10-03T12:32:18.605Z,1001.87
2018-10-03T12:33:28.782Z,1001.79
2018-10-03T12:34:38.947Z,1001.77
2018-10-03T12:35:48.775Z,1001.89
2018-10-03T12:36:58.879Z,1001.77
2018-10-03T12:38:08.972Z,1001.78
2018-10-03T12:39:19.055Z,1001.76
2018-10-03T12:40:28.908Z,1001.82
2018-10-03T12:41:39.004Z,1001.79
2018-10-03T12:42:49.153Z,1001.81
2018-10-03T12:43:59.221Z,1001.91
2018-10-03T12:45:09.479Z,1001.85
2018-10-03T12:46:19.827Z,1001.86
2018-10-03T12:47:29.647Z,1001.84
2018-10-03T12:48:39.800Z,1001.84
2018-10-03T12:49:49.617Z,1001.8
2018-10-03T12:50:59.453Z,1001.86
2018-10-03T12:52:09.552Z,1001.76
2018-10-03T12:53:19.696Z,1001.79
2018-10-03T12:54:29.853Z,1001.77
2018-10-03T12:55:40.310Z,1001.9
2018-10-03T12:56:50.413Z,1001.79
2018-10-03T12:58:02.466Z,1002.02
2018-10-03T12:59:12.560Z,1002.02
2018-10-03T13:00:22.886Z,1002.13
2018-10-03T13:01:33.069Z,1002.04
2018-10-03T13:02:42.893Z,1001.95
2018-10-03T13:03:52.998Z,1001.96
2018-10-03T13:05:03.188Z,1002.03
2018-10-03T13:06:13.284Z,1001.96
2018-10-03T13:07:23.364Z,1002
2018-10-03T13:08:33.516Z,1002.08
2018-10-03T13:09:43.500Z,1002.13
2018-10-03T13:10:53.571Z,1002.07
2018-10-03T13:12:03.719Z,1002.05
2018-10-03T13:13:13.804Z,1002.1
2018-10-03T13:14:23.874Z,1002.13
2018-10-03T13:15:33.973Z,1001.97
2018-10-03T13:16:44.051Z,1002.1
2018-10-03T13:17:54.183Z,1002.16
2018-10-03T13:19:04.004Z,1002.19
2018-10-03T13:20:14.075Z,1002.16
2018-10-03T13:21:24.169Z,1002.19
2018-10-03T13:22:33.997Z,1002.18
2018-10-03T13:23:44.090Z,1002.13
2018-10-03T13:24:54.175Z,1002.04
2018-10-03T13:26:04.860Z,1002.07
2018-10-03T13:27:14.696Z,1002.11
2018-10-03T13:28:24.509Z,1002.08
2018-10-03T13:29:34.659Z,1002.12
2018-10-03T13:30:44.836Z,1002.15
2018-10-03T13:31:55.114Z,1002.11
2018-10-03T13:33:05.210Z,1002.13
2018-10-03T13:34:15.318Z,1002.11
2018-10-03T13:35:25.398Z,1002.06
2018-10-03T13:36:35.488Z,1002.05
2018-10-03T13:37:45.585Z,1002
2018-10-03T13:38:55.422Z,1002.03
2018-10-03T13:40:07.783Z,1002.09
2018-10-03T13:41:17.662Z,1002.14
2018-10-03T13:42:27.949Z,1002.17
2018-10-03T13:43:37.771Z,1002.22
2018-10-03T13:44:47.832Z,1002.18
2018-10-03T13:45:57.911Z,1002.18
2018-10-03T13:47:07.992Z,1002.16
2018-10-03T13:48:17.847Z,1002.16
2018-10-03T13:49:27.915Z,1002.21
2018-10-03T13:50:37.987Z,1002.25
2018-10-03T13:51:48.073Z,1002.19
2018-10-03T13:52:57.880Z,1002.16
2018-10-03T13:54:08.052Z,1002.16
2018-10-03T13:55:17.855Z,1002.14
2018-10-03T13:56:27.935Z,1002.16
2018-10-03T13:57:38.038Z,1002.23
2018-10-03T13:58:48.178Z,1002.16
2018-10-03T13:59:58.265Z,1002.29
2018-10-03T14:01:12.452Z,1002.16
2018-10-03T14:02:22.536Z,1002.15
2018-10-03T14:03:32.627Z,1002.17
2018-10-03T14:04:42.231Z,1002.15
2018-10-03T14:05:52.346Z,1002.19
2018-10-03T14:07:02.557Z,1002.15
2018-10-03T14:08:12.377Z,1002.24
2018-10-03T14:09:22.487Z,1002.14
2018-10-03T14:10:32.597Z,1002.22
2018-10-03T14:11:42.702Z,1002.25
2018-10-03T14:12:52.772Z,1002.21
2018-10-03T14:14:02.853Z,1002.26
2018-10-03T14:15:12.931Z,1002.2
2018-10-03T14:16:23.070Z,1002.32
2018-10-03T14:17:33.442Z,1002.28
2018-10-03T14:18:43.594Z,1002.3
2018-10-03T14:19:53.433Z,1002.42
2018-10-03T14:21:03.523Z,1002.5
2018-10-03T14:22:13.409Z,1002.47
2018-10-03T14:23:23.505Z,1002.41
2018-10-03T14:24:33.681Z,1002.43
2018-10-03T14:25:43.809Z,1002.48
2018-10-03T14:26:53.625Z,1002.49
2018-10-03T14:28:03.832Z,1002.56
2018-10-03T14:29:13.923Z,1002.46
2018-10-03T14:30:24.000Z,1002.47
2018-10-03T14:31:34.176Z,1002.48
2018-10-03T14:32:44.239Z,1002.49
2018-10-03T14:33:54.039Z,1002.46
2018-10-03T14:35:04.114Z,1002.52
2018-10-03T14:36:14.208Z,1002.53
2018-10-03T14:37:24.036Z,1002.53
2018-10-03T14:38:34.113Z,1002.54
2018-10-03T14:39:44.277Z,1002.47
2018-10-03T14:40:54.779Z,1002.56
2018-10-03T14:42:04.887Z,1002.59